Terminal Aerodrome Forecast
Issued by NWS

Home | Current Version | Previous Version | Graphics & Text | Print | Product List | Glossary On
Versions: 1 2 3 4 5 6 7 8 9 10 11 12 13 14 15 16 17 18 19 20 21 22 23 24 25 26 27 28 29 30 31 32
000
FTUS43 KGRB 221135
TAFRHI
TAF
KRHI 221135Z 2212/2312 11004KT 4SM -SHRA VCTS OVC007CB
      TEMPO 2212/2214 2SM -SHRA BR BKN003
     FM221400 08005KT 6SM BR VCSH OVC015
     FM222000 08004KT 6SM -SHRA VCTS OVC020CB
     FM230600 06007KT 3SM BR VCSH OVC008=

USA.gov is the U.S. government's official web portal to all federal, state and local government web resources and services.